sensor_id;sensor_type;location;lat;lon;timestamp;P1;durP1;ratioP1;P2;durP2;ratioP2
58338;SDS011;48278;52.704;6.536;2022-11-15T00:00:32;33.72;;;14.35;;
58338;SDS011;48278;52.704;6.536;2022-11-15T00:02:59;36.30;;;14.93;;
58338;SDS011;48278;52.704;6.536;2022-11-15T00:05:24;39.00;;;15.15;;
58338;SDS011;48278;52.704;6.536;2022-11-15T00:07:50;33.38;;;14.98;;
58338;SDS011;48278;52.704;6.536;2022-11-15T00:10:16;35.60;;;16.13;;
58338;SDS011;48278;52.704;6.536;2022-11-15T00:12:42;34.72;;;14.95;;
58338;SDS011;48278;52.704;6.536;2022-11-15T00:15:08;35.63;;;15.38;;
58338;SDS011;48278;52.704;6.536;2022-11-15T00:17:33;33.13;;;14.63;;
58338;SDS011;48278;52.704;6.536;2022-11-15T00:19:59;32.35;;;15.23;;
58338;SDS011;48278;52.704;6.536;2022-11-15T00:22:26;34.45;;;15.63;;
58338;SDS011;48278;52.704;6.536;2022-11-15T00:24:57;35.47;;;15.57;;
58338;SDS011;48278;52.704;6.536;2022-11-15T00:27:22;32.10;;;14.02;;
58338;SDS011;48278;52.704;6.536;2022-11-15T00:29:48;37.03;;;14.95;;
58338;SDS011;48278;52.704;6.536;2022-11-15T00:32:14;35.90;;;13.80;;
58338;SDS011;48278;52.704;6.536;2022-11-15T00:34:39;38.85;;;16.08;;
58338;SDS011;48278;52.704;6.536;2022-11-15T00:37:05;34.40;;;14.45;;
58338;SDS011;48278;52.704;6.536;2022-11-15T00:39:32;37.60;;;15.37;;
58338;SDS011;48278;52.704;6.536;2022-11-15T00:41:57;41.85;;;16.88;;
58338;SDS011;48278;52.704;6.536;2022-11-15T00:44:23;39.42;;;16.15;;
58338;SDS011;48278;52.704;6.536;2022-11-15T00:46:49;40.47;;;15.30;;
58338;SDS011;48278;52.704;6.536;2022-11-15T00:49:14;36.33;;;14.55;;
58338;SDS011;48278;52.704;6.536;2022-11-15T00:51:40;35.40;;;15.07;;
58338;SDS011;48278;52.704;6.536;2022-11-15T00:54:08;39.47;;;15.77;;
58338;SDS011;48278;52.704;6.536;2022-11-15T00:56:34;38.05;;;14.43;;
58338;SDS011;48278;52.704;6.536;2022-11-15T00:58:59;39.05;;;15.45;;
58338;SDS011;48278;52.704;6.536;2022-11-15T01:01:25;36.58;;;14.27;;
58338;SDS011;48278;52.704;6.536;2022-11-15T01:03:51;40.33;;;15.43;;
58338;SDS011;48278;52.704;6.536;2022-11-15T01:06:17;41.50;;;15.93;;
58338;SDS011;48278;52.704;6.536;2022-11-15T01:08:42;42.40;;;15.55;;
58338;SDS011;48278;52.704;6.536;2022-11-15T01:11:09;41.13;;;16.10;;
58338;SDS011;48278;52.704;6.536;2022-11-15T01:13:37;39.80;;;15.23;;
58338;SDS011;48278;52.704;6.536;2022-11-15T01:16:14;43.28;;;15.82;;
58338;SDS011;48278;52.704;6.536;2022-11-15T01:18:43;37.45;;;14.30;;
58338;SDS011;48278;52.704;6.536;2022-11-15T01:21:10;33.22;;;15.02;;
58338;SDS011;48278;52.704;6.536;2022-11-15T01:23:40;38.88;;;14.75;;
58338;SDS011;48278;52.704;6.536;2022-11-15T01:26:07;35.72;;;15.35;;
58338;SDS011;48278;52.704;6.536;2022-11-15T01:28:36;34.30;;;14.18;;
58338;SDS011;48278;52.704;6.536;2022-11-15T01:31:04;40.70;;;15.30;;
58338;SDS011;48278;52.704;6.536;2022-11-15T01:33:33;36.88;;;14.73;;
58338;SDS011;48278;52.704;6.536;2022-11-15T01:36:03;35.67;;;14.13;;
58338;SDS011;48278;52.704;6.536;2022-11-15T01:38:30;34.60;;;14.55;;
58338;SDS011;48278;52.704;6.536;2022-11-15T01:40:55;33.10;;;14.65;;
58338;SDS011;48278;52.704;6.536;2022-11-15T01:43:29;38.28;;;14.60;;
58338;SDS011;48278;52.704;6.536;2022-11-15T01:48:49;34.40;;;14.57;;
58338;SDS011;48278;52.704;6.536;2022-11-15T01:51:19;40.38;;;14.60;;
58338;SDS011;48278;52.704;6.536;2022-11-15T01:53:47;43.50;;;14.40;;
58338;SDS011;48278;52.704;6.536;2022-11-15T01:56:18;38.17;;;15.15;;
58338;SDS011;48278;52.704;6.536;2022-11-15T01:58:48;38.97;;;14.38;;
58338;SDS011;48278;52.704;6.536;2022-11-15T02:01:16;36.03;;;14.32;;
58338;SDS011;48278;52.704;6.536;2022-11-15T02:06:21;40.35;;;15.50;;
58338;SDS011;48278;52.704;6.536;2022-11-15T02:08:47;41.83;;;15.27;;
58338;SDS011;48278;52.704;6.536;2022-11-15T02:11:14;42.00;;;14.75;;
58338;SDS011;48278;52.704;6.536;2022-11-15T02:13:40;49.42;;;15.32;;
58338;SDS011;48278;52.704;6.536;2022-11-15T02:21:45;49.33;;;16.38;;
58338;SDS011;48278;52.704;6.536;2022-11-15T02:24:25;47.70;;;15.77;;
58338;SDS011;48278;52.704;6.536;2022-11-15T02:32:44;52.05;;;17.40;;
58338;SDS011;48278;52.704;6.536;2022-11-15T02:37:55;47.38;;;16.40;;
58338;SDS011;48278;52.704;6.536;2022-11-15T02:43:01;52.72;;;17.98;;
58338;SDS011;48278;52.704;6.536;2022-11-15T02:45:52;48.42;;;18.35;;
58338;SDS011;48278;52.704;6.536;2022-11-15T02:48:25;50.00;;;17.23;;
58338;SDS011;48278;52.704;6.536;2022-11-15T02:50:51;50.58;;;16.98;;
58338;SDS011;48278;52.704;6.536;2022-11-15T02:53:18;50.40;;;16.97;;
58338;SDS011;48278;52.704;6.536;2022-11-15T02:55:48;52.85;;;18.40;;
58338;SDS011;48278;52.704;6.536;2022-11-15T03:00:53;56.05;;;19.48;;
58338;SDS011;48278;52.704;6.536;2022-11-15T03:03:47;55.28;;;18.65;;
58338;SDS011;48278;52.704;6.536;2022-11-15T03:09:17;54.08;;;18.98;;
58338;SDS011;48278;52.704;6.536;2022-11-15T03:12:15;61.03;;;19.27;;
58338;SDS011;48278;52.704;6.536;2022-11-15T03:15:10;58.80;;;18.48;;
58338;SDS011;48278;52.704;6.536;2022-11-15T03:17:58;52.75;;;18.33;;
58338;SDS011;48278;52.704;6.536;2022-11-15T03:20:32;60.75;;;20.02;;
58338;SDS011;48278;52.704;6.536;2022-11-15T03:23:01;56.97;;;20.30;;
58338;SDS011;48278;52.704;6.536;2022-11-15T03:25:36;58.53;;;19.52;;
58338;SDS011;48278;52.704;6.536;2022-11-15T03:28:06;53.25;;;18.52;;
58338;SDS011;48278;52.704;6.536;2022-11-15T03:30:36;54.08;;;19.73;;
58338;SDS011;48278;52.704;6.536;2022-11-15T03:33:05;60.65;;;20.08;;
58338;SDS011;48278;52.704;6.536;2022-11-15T03:35:35;55.55;;;19.25;;
58338;SDS011;48278;52.704;6.536;2022-11-15T03:38:11;62.15;;;20.08;;
58338;SDS011;48278;52.704;6.536;2022-11-15T03:40:45;62.22;;;20.25;;
58338;SDS011;48278;52.704;6.536;2022-11-15T03:43:30;59.67;;;20.10;;
58338;SDS011;48278;52.704;6.536;2022-11-15T03:46:13;63.67;;;21.45;;
58338;SDS011;48278;52.704;6.536;2022-11-15T03:48:45;63.13;;;20.08;;
58338;SDS011;48278;52.704;6.536;2022-11-15T03:51:15;65.30;;;20.80;;
58338;SDS011;48278;52.704;6.536;2022-11-15T03:53:41;57.88;;;20.90;;
58338;SDS011;48278;52.704;6.536;2022-11-15T03:56:07;57.40;;;21.17;;
58338;SDS011;48278;52.704;6.536;2022-11-15T03:58:33;59.72;;;20.60;;
58338;SDS011;48278;52.704;6.536;2022-11-15T04:00:59;62.72;;;21.63;;
58338;SDS011;48278;52.704;6.536;2022-11-15T04:03:25;64.28;;;23.13;;
58338;SDS011;48278;52.704;6.536;2022-11-15T04:05:51;76.93;;;21.38;;
58338;SDS011;48278;52.704;6.536;2022-11-15T04:08:16;64.78;;;21.10;;
58338;SDS011;48278;52.704;6.536;2022-11-15T04:10:42;62.35;;;22.08;;
58338;SDS011;48278;52.704;6.536;2022-11-15T04:13:08;70.78;;;23.17;;
58338;SDS011;48278;52.704;6.536;2022-11-15T04:15:34;71.38;;;22.48;;
58338;SDS011;48278;52.704;6.536;2022-11-15T04:18:00;63.58;;;21.77;;
58338;SDS011;48278;52.704;6.536;2022-11-15T04:20:27;61.90;;;21.08;;
58338;SDS011;48278;52.704;6.536;2022-11-15T04:23:14;72.28;;;22.45;;
58338;SDS011;48278;52.704;6.536;2022-11-15T04:25:59;59.95;;;22.33;;
58338;SDS011;48278;52.704;6.536;2022-11-15T04:28:45;69.85;;;22.85;;
58338;SDS011;48278;52.704;6.536;2022-11-15T04:31:30;64.38;;;22.45;;
58338;SDS011;48278;52.704;6.536;2022-11-15T04:33:56;70.55;;;23.08;;
58338;SDS011;48278;52.704;6.536;2022-11-15T04:36:22;61.90;;;22.83;;
58338;SDS011;48278;52.704;6.536;2022-11-15T04:39:06;59.38;;;22.00;;
58338;SDS011;48278;52.704;6.536;2022-11-15T04:41:32;64.57;;;22.95;;
58338;SDS011;48278;52.704;6.536;2022-11-15T04:43:58;72.50;;;24.70;;
58338;SDS011;48278;52.704;6.536;2022-11-15T04:46:23;65.95;;;23.00;;
58338;SDS011;48278;52.704;6.536;2022-11-15T04:48:50;69.47;;;24.37;;
58338;SDS011;48278;52.704;6.536;2022-11-15T04:51:16;59.70;;;22.90;;
58338;SDS011;48278;52.704;6.536;2022-11-15T04:53:42;69.70;;;24.17;;
58338;SDS011;48278;52.704;6.536;2022-11-15T04:56:07;69.97;;;24.27;;
58338;SDS011;48278;52.704;6.536;2022-11-15T04:58:33;64.07;;;22.88;;
58338;SDS011;48278;52.704;6.536;2022-11-15T05:01:21;61.13;;;22.10;;
58338;SDS011;48278;52.704;6.536;2022-11-15T05:03:45;60.17;;;22.53;;
58338;SDS011;48278;52.704;6.536;2022-11-15T05:06:29;53.53;;;21.10;;
58338;SDS011;48278;52.704;6.536;2022-11-15T05:09:02;53.85;;;21.80;;
58338;SDS011;48278;52.704;6.536;2022-11-15T05:11:28;51.13;;;21.27;;
58338;SDS011;48278;52.704;6.536;2022-11-15T05:13:54;50.15;;;21.13;;
58338;SDS011;48278;52.704;6.536;2022-11-15T05:16:19;51.40;;;21.00;;
58338;SDS011;48278;52.704;6.536;2022-11-15T05:18:45;57.75;;;21.17;;
58338;SDS011;48278;52.704;6.536;2022-11-15T05:21:12;50.30;;;20.60;;
58338;SDS011;48278;52.704;6.536;2022-11-15T05:23:40;52.95;;;21.45;;
58338;SDS011;48278;52.704;6.536;2022-11-15T05:26:06;55.88;;;21.30;;
58338;SDS011;48278;52.704;6.536;2022-11-15T05:28:36;52.03;;;20.48;;
58338;SDS011;48278;52.704;6.536;2022-11-15T05:31:06;50.93;;;20.17;;
58338;SDS011;48278;52.704;6.536;2022-11-15T05:33:33;52.90;;;19.88;;
58338;SDS011;48278;52.704;6.536;2022-11-15T05:36:02;55.38;;;19.23;;
58338;SDS011;48278;52.704;6.536;2022-11-15T05:38:43;44.72;;;18.20;;
58338;SDS011;48278;52.704;6.536;2022-11-15T05:41:09;41.70;;;18.85;;
58338;SDS011;48278;52.704;6.536;2022-11-15T05:43:36;54.10;;;20.23;;
58338;SDS011;48278;52.704;6.536;2022-11-15T05:46:04;48.10;;;19.08;;
58338;SDS011;48278;52.704;6.536;2022-11-15T05:48:30;54.00;;;20.85;;
58338;SDS011;48278;52.704;6.536;2022-11-15T05:53:23;49.20;;;19.67;;
58338;SDS011;48278;52.704;6.536;2022-11-15T05:55:51;47.05;;;19.73;;
58338;SDS011;48278;52.704;6.536;2022-11-15T05:58:17;49.50;;;19.90;;
58338;SDS011;48278;52.704;6.536;2022-11-15T06:03:09;48.77;;;19.73;;
58338;SDS011;48278;52.704;6.536;2022-11-15T06:05:35;55.25;;;21.83;;
58338;SDS011;48278;52.704;6.536;2022-11-15T06:08:01;50.55;;;19.65;;
58338;SDS011;48278;52.704;6.536;2022-11-15T06:10:27;54.80;;;20.30;;
58338;SDS011;48278;52.704;6.536;2022-11-15T06:12:56;51.08;;;21.40;;
58338;SDS011;48278;52.704;6.536;2022-11-15T06:15:23;49.65;;;19.70;;
58338;SDS011;48278;52.704;6.536;2022-11-15T06:17:49;49.65;;;18.98;;
58338;SDS011;48278;52.704;6.536;2022-11-15T06:20:14;48.83;;;19.33;;
58338;SDS011;48278;52.704;6.536;2022-11-15T06:22:40;52.15;;;20.08;;
58338;SDS011;48278;52.704;6.536;2022-11-15T06:25:06;50.88;;;20.05;;
58338;SDS011;48278;52.704;6.536;2022-11-15T06:27:32;50.83;;;20.67;;
58338;SDS011;48278;52.704;6.536;2022-11-15T06:29:57;45.20;;;17.98;;
58338;SDS011;48278;52.704;6.536;2022-11-15T06:32:23;50.08;;;19.15;;
58338;SDS011;48278;52.704;6.536;2022-11-15T06:34:49;41.75;;;18.50;;
58338;SDS011;48278;52.704;6.536;2022-11-15T06:37:15;41.97;;;18.50;;
58338;SDS011;48278;52.704;6.536;2022-11-15T06:39:40;45.90;;;19.42;;
58338;SDS011;48278;52.704;6.536;2022-11-15T06:42:07;47.20;;;19.08;;
58338;SDS011;48278;52.704;6.536;2022-11-15T06:44:34;37.80;;;17.67;;
58338;SDS011;48278;52.704;6.536;2022-11-15T06:47:00;44.30;;;18.65;;
58338;SDS011;48278;52.704;6.536;2022-11-15T06:49:25;41.97;;;18.73;;
58338;SDS011;48278;52.704;6.536;2022-11-15T06:51:51;43.38;;;16.83;;
58338;SDS011;48278;52.704;6.536;2022-11-15T06:54:17;37.38;;;16.92;;
58338;SDS011;48278;52.704;6.536;2022-11-15T06:56:42;42.22;;;17.58;;
58338;SDS011;48278;52.704;6.536;2022-11-15T06:59:08;41.78;;;17.65;;
58338;SDS011;48278;52.704;6.536;2022-11-15T07:01:34;39.80;;;16.63;;
58338;SDS011;48278;52.704;6.536;2022-11-15T07:04:00;40.78;;;17.92;;
58338;SDS011;48278;52.704;6.536;2022-11-15T07:06:25;37.72;;;16.52;;
58338;SDS011;48278;52.704;6.536;2022-11-15T07:08:51;38.30;;;16.88;;
58338;SDS011;48278;52.704;6.536;2022-11-15T07:11:17;44.92;;;17.42;;
58338;SDS011;48278;52.704;6.536;2022-11-15T07:13:43;41.85;;;18.00;;
58338;SDS011;48278;52.704;6.536;2022-11-15T07:16:09;32.15;;;15.65;;
58338;SDS011;48278;52.704;6.536;2022-11-15T07:18:38;36.38;;;17.33;;
58338;SDS011;48278;52.704;6.536;2022-11-15T07:21:06;40.88;;;17.52;;
58338;SDS011;48278;52.704;6.536;2022-11-15T07:23:36;36.17;;;16.67;;
58338;SDS011;48278;52.704;6.536;2022-11-15T07:26:05;38.70;;;16.98;;
58338;SDS011;48278;52.704;6.536;2022-11-15T07:28:32;36.75;;;16.02;;
58338;SDS011;48278;52.704;6.536;2022-11-15T07:31:01;37.78;;;16.02;;
58338;SDS011;48278;52.704;6.536;2022-11-15T07:33:30;32.63;;;16.17;;
58338;SDS011;48278;52.704;6.536;2022-11-15T07:36:00;36.95;;;16.52;;
58338;SDS011;48278;52.704;6.536;2022-11-15T07:38:27;37.97;;;17.23;;
58338;SDS011;48278;52.704;6.536;2022-11-15T07:40:57;35.28;;;16.73;;
58338;SDS011;48278;52.704;6.536;2022-11-15T07:43:24;37.22;;;16.35;;
58338;SDS011;48278;52.704;6.536;2022-11-15T07:45:52;39.28;;;16.90;;
58338;SDS011;48278;52.704;6.536;2022-11-15T07:48:18;41.00;;;17.20;;
58338;SDS011;48278;52.704;6.536;2022-11-15T07:50:44;35.88;;;17.23;;
58338;SDS011;48278;52.704;6.536;2022-11-15T07:53:10;35.58;;;16.40;;
58338;SDS011;48278;52.704;6.536;2022-11-15T07:55:36;39.10;;;17.15;;
58338;SDS011;48278;52.704;6.536;2022-11-15T07:58:03;38.60;;;17.50;;
58338;SDS011;48278;52.704;6.536;2022-11-15T08:00:33;37.65;;;17.23;;
58338;SDS011;48278;52.704;6.536;2022-11-15T08:05:36;35.55;;;16.10;;
58338;SDS011;48278;52.704;6.536;2022-11-15T08:08:03;38.22;;;17.05;;
58338;SDS011;48278;52.704;6.536;2022-11-15T08:10:29;36.90;;;16.73;;
58338;SDS011;48278;52.704;6.536;2022-11-15T08:13:04;34.63;;;16.55;;
58338;SDS011;48278;52.704;6.536;2022-11-15T08:15:32;35.72;;;16.63;;
58338;SDS011;48278;52.704;6.536;2022-11-15T08:18:00;34.25;;;16.67;;
58338;SDS011;48278;52.704;6.536;2022-11-15T08:20:28;31.55;;;15.88;;
58338;SDS011;48278;52.704;6.536;2022-11-15T08:22:58;36.60;;;16.63;;
58338;SDS011;48278;52.704;6.536;2022-11-15T08:25:25;34.20;;;15.75;;
58338;SDS011;48278;52.704;6.536;2022-11-15T08:27:53;35.53;;;15.85;;
58338;SDS011;48278;52.704;6.536;2022-11-15T08:32:46;36.88;;;15.90;;
58338;SDS011;48278;52.704;6.536;2022-11-15T08:35:12;37.42;;;16.60;;
58338;SDS011;48278;52.704;6.536;2022-11-15T08:37:38;42.10;;;16.92;;
58338;SDS011;48278;52.704;6.536;2022-11-15T08:40:04;38.65;;;17.50;;
58338;SDS011;48278;52.704;6.536;2022-11-15T08:42:30;34.25;;;17.25;;
58338;SDS011;48278;52.704;6.536;2022-11-15T08:44:56;39.67;;;17.30;;
58338;SDS011;48278;52.704;6.536;2022-11-15T08:47:22;36.17;;;16.77;;
58338;SDS011;48278;52.704;6.536;2022-11-15T08:49:49;35.75;;;17.13;;
58338;SDS011;48278;52.704;6.536;2022-11-15T08:52:14;38.85;;;16.30;;
58338;SDS011;48278;52.704;6.536;2022-11-15T08:54:40;36.90;;;16.48;;
58338;SDS011;48278;52.704;6.536;2022-11-15T08:57:06;35.70;;;16.58;;
58338;SDS011;48278;52.704;6.536;2022-11-15T08:59:34;36.15;;;16.52;;
58338;SDS011;48278;52.704;6.536;2022-11-15T09:02:02;37.40;;;18.05;;
58338;SDS011;48278;52.704;6.536;2022-11-15T09:04:28;33.13;;;16.30;;
58338;SDS011;48278;52.704;6.536;2022-11-15T09:06:54;37.97;;;16.70;;
58338;SDS011;48278;52.704;6.536;2022-11-15T09:09:20;35.65;;;16.42;;
58338;SDS011;48278;52.704;6.536;2022-11-15T09:11:46;33.95;;;16.02;;
58338;SDS011;48278;52.704;6.536;2022-11-15T09:14:12;32.97;;;16.98;;
58338;SDS011;48278;52.704;6.536;2022-11-15T09:16:38;30.77;;;15.40;;
58338;SDS011;48278;52.704;6.536;2022-11-15T09:19:04;30.98;;;14.95;;
58338;SDS011;48278;52.704;6.536;2022-11-15T09:21:30;32.10;;;14.70;;
58338;SDS011;48278;52.704;6.536;2022-11-15T09:23:56;30.98;;;14.27;;
58338;SDS011;48278;52.704;6.536;2022-11-15T09:26:22;35.47;;;14.63;;
58338;SDS011;48278;52.704;6.536;2022-11-15T09:28:48;30.20;;;14.45;;
58338;SDS011;48278;52.704;6.536;2022-11-15T09:31:13;30.33;;;14.10;;
58338;SDS011;48278;52.704;6.536;2022-11-15T09:33:39;26.00;;;14.10;;
58338;SDS011;48278;52.704;6.536;2022-11-15T09:36:08;25.02;;;13.32;;
58338;SDS011;48278;52.704;6.536;2022-11-15T09:38:34;26.95;;;13.68;;
58338;SDS011;48278;52.704;6.536;2022-11-15T09:43:46;25.65;;;13.52;;
58338;SDS011;48278;52.704;6.536;2022-11-15T09:49:08;24.77;;;12.35;;
58338;SDS011;48278;52.704;6.536;2022-11-15T09:51:43;25.17;;;12.52;;
58338;SDS011;48278;52.704;6.536;2022-11-15T09:54:25;23.63;;;11.93;;
58338;SDS011;48278;52.704;6.536;2022-11-15T09:56:55;22.45;;;12.40;;
58338;SDS011;48278;52.704;6.536;2022-11-15T09:59:40;22.75;;;11.20;;
58338;SDS011;48278;52.704;6.536;2022-11-15T10:04:59;19.60;;;10.95;;
58338;SDS011;48278;52.704;6.536;2022-11-15T10:12:54;18.65;;;9.88;;
58338;SDS011;48278;52.704;6.536;2022-11-15T10:15:20;24.63;;;11.00;;
58338;SDS011;48278;52.704;6.536;2022-11-15T10:20:33;17.67;;;9.38;;
58338;SDS011;48278;52.704;6.536;2022-11-15T10:23:10;17.75;;;9.40;;
58338;SDS011;48278;52.704;6.536;2022-11-15T10:25:38;19.65;;;10.15;;
58338;SDS011;48278;52.704;6.536;2022-11-15T10:28:17;20.13;;;9.95;;
58338;SDS011;48278;52.704;6.536;2022-11-15T10:30:53;18.73;;;8.77;;
58338;SDS011;48278;52.704;6.536;2022-11-15T10:41:35;15.75;;;6.50;;
58338;SDS011;48278;52.704;6.536;2022-11-15T10:46:32;10.05;;;5.07;;
58338;SDS011;48278;52.704;6.536;2022-11-15T10:49:16;10.82;;;4.60;;
58338;SDS011;48278;52.704;6.536;2022-11-15T10:51:47;11.00;;;4.43;;
58338;SDS011;48278;52.704;6.536;2022-11-15T10:56:53;8.15;;;3.67;;
58338;SDS011;48278;52.704;6.536;2022-11-15T10:59:31;9.80;;;4.13;;
58338;SDS011;48278;52.704;6.536;2022-11-15T11:01:59;8.30;;;3.67;;
58338;SDS011;48278;52.704;6.536;2022-11-15T11:04:25;6.78;;;3.58;;
58338;SDS011;48278;52.704;6.536;2022-11-15T11:06:53;7.65;;;3.80;;
58338;SDS011;48278;52.704;6.536;2022-11-15T11:09:27;9.02;;;3.55;;
58338;SDS011;48278;52.704;6.536;2022-11-15T11:12:04;10.77;;;4.15;;
58338;SDS011;48278;52.704;6.536;2022-11-15T11:14:35;10.45;;;4.32;;
58338;SDS011;48278;52.704;6.536;2022-11-15T11:19:54;7.28;;;3.60;;
58338;SDS011;48278;52.704;6.536;2022-11-15T11:25:18;8.82;;;3.50;;
58338;SDS011;48278;52.704;6.536;2022-11-15T11:33:39;9.75;;;3.60;;
58338;SDS011;48278;52.704;6.536;2022-11-15T11:39:14;8.77;;;3.75;;
58338;SDS011;48278;52.704;6.536;2022-11-15T11:49:59;13.70;;;3.88;;
58338;SDS011;48278;52.704;6.536;2022-11-15T11:52:38;8.88;;;2.95;;
58338;SDS011;48278;52.704;6.536;2022-11-15T12:04:13;8.35;;;3.05;;
58338;SDS011;48278;52.704;6.536;2022-11-15T12:06:27;11.02;;;2.78;;
58338;SDS011;48278;52.704;6.536;2022-11-15T12:14:03;6.43;;;2.38;;
58338;SDS011;48278;52.704;6.536;2022-11-15T12:16:36;11.60;;;2.80;;
58338;SDS011;48278;52.704;6.536;2022-11-15T12:19:04;6.82;;;2.42;;
58338;SDS011;48278;52.704;6.536;2022-11-15T12:24:24;9.10;;;3.22;;
58338;SDS011;48278;52.704;6.536;2022-11-15T12:27:19;9.43;;;2.35;;
58338;SDS011;48278;52.704;6.536;2022-11-15T12:29:48;4.72;;;2.30;;
58338;SDS011;48278;52.704;6.536;2022-11-15T12:32:21;6.60;;;2.15;;
58338;SDS011;48278;52.704;6.536;2022-11-15T12:34:52;7.97;;;2.25;;
58338;SDS011;48278;52.704;6.536;2022-11-15T12:45:39;7.25;;;1.83;;
58338;SDS011;48278;52.704;6.536;2022-11-15T12:58:43;4.43;;;1.52;;
58338;SDS011;48278;52.704;6.536;2022-11-15T13:01:52;6.57;;;1.50;;
58338;SDS011;48278;52.704;6.536;2022-11-15T13:04:13;6.90;;;1.85;;
58338;SDS011;48278;52.704;6.536;2022-11-15T13:06:41;4.38;;;1.45;;
58338;SDS011;48278;52.704;6.536;2022-11-15T13:11:53;6.78;;;1.15;;
58338;SDS011;48278;52.704;6.536;2022-11-15T13:20:08;4.20;;;1.50;;
58338;SDS011;48278;52.704;6.536;2022-11-15T13:33:30;7.32;;;1.13;;
58338;SDS011;48278;52.704;6.536;2022-11-15T13:35:57;5.13;;;0.85;;
58338;SDS011;48278;52.704;6.536;2022-11-15T13:38:38;6.28;;;1.52;;
58338;SDS011;48278;52.704;6.536;2022-11-15T13:43:48;3.75;;;1.40;;
58338;SDS011;48278;52.704;6.536;2022-11-15T13:48:56;2.88;;;0.77;;
58338;SDS011;48278;52.704;6.536;2022-11-15T13:54:19;3.75;;;0.70;;
58338;SDS011;48278;52.704;6.536;2022-11-15T13:56:52;3.42;;;0.80;;
58338;SDS011;48278;52.704;6.536;2022-11-15T13:59:28;5.30;;;1.13;;
58338;SDS011;48278;52.704;6.536;2022-11-15T14:01:56;6.22;;;1.13;;
58338;SDS011;48278;52.704;6.536;2022-11-15T14:04:26;5.38;;;1.00;;
58338;SDS011;48278;52.704;6.536;2022-11-15T14:06:55;4.80;;;1.23;;
58338;SDS011;48278;52.704;6.536;2022-11-15T14:12:01;6.32;;;1.50;;
58338;SDS011;48278;52.704;6.536;2022-11-15T14:14:46;4.53;;;1.70;;
58338;SDS011;48278;52.704;6.536;2022-11-15T14:17:19;4.22;;;1.30;;
58338;SDS011;48278;52.704;6.536;2022-11-15T14:19:54;4.57;;;1.33;;
58338;SDS011;48278;52.704;6.536;2022-11-15T14:27:32;4.93;;;2.13;;
58338;SDS011;48278;52.704;6.536;2022-11-15T14:29:59;8.15;;;2.10;;
58338;SDS011;48278;52.704;6.536;2022-11-15T14:32:29;5.68;;;2.90;;
58338;SDS011;48278;52.704;6.536;2022-11-15T14:35:09;10.02;;;3.50;;
58338;SDS011;48278;52.704;6.536;2022-11-15T14:37:42;10.07;;;3.50;;
58338;SDS011;48278;52.704;6.536;2022-11-15T14:40:08;9.43;;;4.10;;
58338;SDS011;48278;52.704;6.536;2022-11-15T14:42:42;11.15;;;4.07;;
58338;SDS011;48278;52.704;6.536;2022-11-15T14:45:11;10.38;;;3.78;;
58338;SDS011;48278;52.704;6.536;2022-11-15T14:47:45;11.77;;;4.63;;
58338;SDS011;48278;52.704;6.536;2022-11-15T14:50:12;14.32;;;4.82;;
58338;SDS011;48278;52.704;6.536;2022-11-15T14:52:47;10.50;;;5.18;;
58338;SDS011;48278;52.704;6.536;2022-11-15T14:55:26;11.43;;;5.10;;
58338;SDS011;48278;52.704;6.536;2022-11-15T14:57:54;10.15;;;5.05;;
58338;SDS011;48278;52.704;6.536;2022-11-15T15:00:20;11.35;;;5.80;;
58338;SDS011;48278;52.704;6.536;2022-11-15T15:02:48;10.82;;;5.93;;
58338;SDS011;48278;52.704;6.536;2022-11-15T15:05:19;11.75;;;5.97;;
58338;SDS011;48278;52.704;6.536;2022-11-15T15:07:56;12.25;;;5.88;;
58338;SDS011;48278;52.704;6.536;2022-11-15T15:10:22;13.70;;;5.90;;
58338;SDS011;48278;52.704;6.536;2022-11-15T15:15:16;12.23;;;5.60;;
58338;SDS011;48278;52.704;6.536;2022-11-15T15:17:46;10.25;;;5.95;;
58338;SDS011;48278;52.704;6.536;2022-11-15T15:20:12;12.80;;;6.10;;
58338;SDS011;48278;52.704;6.536;2022-11-15T15:22:38;10.98;;;5.57;;
58338;SDS011;48278;52.704;6.536;2022-11-15T15:25:15;14.55;;;7.57;;
58338;SDS011;48278;52.704;6.536;2022-11-15T15:27:46;13.27;;;6.88;;
58338;SDS011;48278;52.704;6.536;2022-11-15T15:30:12;13.45;;;5.22;;
58338;SDS011;48278;52.704;6.536;2022-11-15T15:32:38;15.35;;;7.80;;
58338;SDS011;48278;52.704;6.536;2022-11-15T15:35:04;12.80;;;6.10;;
58338;SDS011;48278;52.704;6.536;2022-11-15T15:37:30;12.05;;;6.28;;
58338;SDS011;48278;52.704;6.536;2022-11-15T15:39:58;12.43;;;5.35;;
58338;SDS011;48278;52.704;6.536;2022-11-15T15:42:24;11.38;;;5.10;;
58338;SDS011;48278;52.704;6.536;2022-11-15T15:44:50;11.35;;;5.45;;
58338;SDS011;48278;52.704;6.536;2022-11-15T15:47:17;12.57;;;6.05;;
58338;SDS011;48278;52.704;6.536;2022-11-15T15:49:44;11.48;;;5.90;;
58338;SDS011;48278;52.704;6.536;2022-11-15T15:52:10;12.02;;;5.80;;
58338;SDS011;48278;52.704;6.536;2022-11-15T15:54:36;20.17;;;8.77;;
58338;SDS011;48278;52.704;6.536;2022-11-15T15:57:02;12.90;;;6.80;;
58338;SDS011;48278;52.704;6.536;2022-11-15T15:59:30;15.88;;;6.50;;
58338;SDS011;48278;52.704;6.536;2022-11-15T16:01:56;12.47;;;5.27;;
58338;SDS011;48278;52.704;6.536;2022-11-15T16:04:22;12.50;;;5.85;;
58338;SDS011;48278;52.704;6.536;2022-11-15T16:06:48;14.65;;;5.80;;
58338;SDS011;48278;52.704;6.536;2022-11-15T16:09:16;10.40;;;4.47;;
58338;SDS011;48278;52.704;6.536;2022-11-15T16:11:44;9.73;;;4.25;;
58338;SDS011;48278;52.704;6.536;2022-11-15T16:14:10;15.90;;;5.20;;
58338;SDS011;48278;52.704;6.536;2022-11-15T16:16:37;21.23;;;5.72;;
58338;SDS011;48278;52.704;6.536;2022-11-15T16:19:03;7.80;;;2.58;;
58338;SDS011;48278;52.704;6.536;2022-11-15T16:21:29;8.02;;;3.20;;
58338;SDS011;48278;52.704;6.536;2022-11-15T16:23:55;7.60;;;3.03;;
58338;SDS011;48278;52.704;6.536;2022-11-15T16:26:22;8.32;;;2.83;;
58338;SDS011;48278;52.704;6.536;2022-11-15T16:28:50;11.68;;;3.80;;
58338;SDS011;48278;52.704;6.536;2022-11-15T16:31:17;11.63;;;3.38;;
58338;SDS011;48278;52.704;6.536;2022-11-15T16:33:45;6.40;;;2.53;;
58338;SDS011;48278;52.704;6.536;2022-11-15T16:36:24;15.32;;;4.43;;
58338;SDS011;48278;52.704;6.536;2022-11-15T16:38:51;15.95;;;4.53;;
58338;SDS011;48278;52.704;6.536;2022-11-15T16:41:17;18.02;;;4.97;;
58338;SDS011;48278;52.704;6.536;2022-11-15T16:43:44;13.45;;;5.30;;
58338;SDS011;48278;52.704;6.536;2022-11-15T16:48:44;5.10;;;2.10;;
58338;SDS011;48278;52.704;6.536;2022-11-15T16:51:10;6.53;;;2.43;;
58338;SDS011;48278;52.704;6.536;2022-11-15T16:53:36;6.53;;;2.00;;
58338;SDS011;48278;52.704;6.536;2022-11-15T16:56:02;6.90;;;1.30;;
58338;SDS011;48278;52.704;6.536;2022-11-15T16:58:28;6.95;;;2.03;;
58338;SDS011;48278;52.704;6.536;2022-11-15T17:00:54;5.28;;;1.33;;
58338;SDS011;48278;52.704;6.536;2022-11-15T17:03:24;7.53;;;1.45;;
58338;SDS011;48278;52.704;6.536;2022-11-15T17:05:50;6.30;;;1.63;;
58338;SDS011;48278;52.704;6.536;2022-11-15T17:08:16;5.38;;;1.60;;
58338;SDS011;48278;52.704;6.536;2022-11-15T17:10:42;3.03;;;0.82;;
58338;SDS011;48278;52.704;6.536;2022-11-15T17:13:11;5.13;;;1.60;;
58338;SDS011;48278;52.704;6.536;2022-11-15T17:15:38;5.20;;;1.45;;
58338;SDS011;48278;52.704;6.536;2022-11-15T17:18:05;7.32;;;1.80;;
58338;SDS011;48278;52.704;6.536;2022-11-15T17:20:30;5.68;;;1.73;;
58338;SDS011;48278;52.704;6.536;2022-11-15T17:22:57;8.38;;;2.20;;
58338;SDS011;48278;52.704;6.536;2022-11-15T17:25:22;3.70;;;1.40;;